• Join FlightAware (Why Join?)
  • Login
  • US Flag 
04:11AM EST


 

Airport Tracker/Info


-or-


 

Live Flight TrackerFlight Track Log ✈ N775NC ✈ 22-Aug-2013 ✈ KRDU - KATL

Flight Track Log - Related Links

Times and Time Zones

All times are in EDT time to prevent confusion due to time zone crossing. See the N775NC flight status page for this flight to view local times or setup timezone preferences in your user account.

Time Position Orientation Groundspeed Altitude Reporting Facility
EDT Latitude Longitude Course Direction KTS MPH feet Rate Location/Type
09:54AM 35.8667 -78.8086 263° West 171 197 1,500  Level Washington Center
09:55AM 35.8211 -78.8708 228° Southwest 230 265 3,500 1,543 Climbing Washington Center
09:56AM 35.8253 -78.9481 274° West 245 282 5,100 1,918 Climbing Washington Center
09:57AM 35.8333 -79.2593 270° West  Level FlightAware Approximate
09:57AM 35.8394 -79.0408 281° West 280 322 7,400  Level Washington Center
09:58AM 35.8222 -79.3791 263° West  Level FlightAware Approximate
09:58AM 35.8417 -79.1025 273° West 279 321 9,100  Level Washington Center
09:59AM 35.8102 -79.4988 263° West  Level FlightAware Approximate
09:59AM 35.8364 -79.2097 267° West 290 334 11,900  Level Washington Center
10:01AM 35.8100 -79.4528 262° West 318 366 15,900 1,642 Climbing Atlanta Center
10:02AM 35.8036 -79.5683 266° West 330 380 17,400 1,850 Climbing Atlanta Center
10:03AM 35.8106 -79.6983 274° West 338 389 19,600 1,750 Climbing Atlanta Center
10:04AM 35.8169 -79.8236 274° West 357 411 20,900 1,250 Climbing Atlanta Center
10:05AM 35.8311 -79.9331 279° West 368 423 22,100 3,550 Climbing Atlanta Center
10:06AM 35.8311 -80.0611 270° West 375 432 28,000 1,250 Climbing Atlanta Center
10:07AM 35.7978 -80.1933 253° West 381 438 24,600 -1,050 Descending Atlanta Center
10:08AM 35.7706 -80.3275 256° West 400 460 25,900 1,250 Climbing Atlanta Center
10:09AM 35.7392 -80.4594 254° West 407 468 27,100 1,050 Climbing Atlanta Center
10:10AM 35.6992 -80.5917 250° West 407 468 28,000 450 Climbing Atlanta Center
10:11AM 35.6569 -80.7264 249° West 419 482 28,000  Level Atlanta Center
10:12AM 35.6128 -80.8739 250° West 419 482 28,000  Level Atlanta Center
10:13AM 35.5703 -81.0081 249° West 419 482 28,000  Level Atlanta Center
10:14AM 35.5236 -81.1450 247° West 419 482 28,000  Level Atlanta Center
10:15AM 35.4831 -81.2894 251° West 442 509 28,000  Level Atlanta Center
10:16AM 35.4483 -81.4156 251° West 442 509 28,000  Level Atlanta Center
10:17AM 35.4072 -81.5517 250° West 437 503 28,000  Level Atlanta Center
10:18AM 35.3661 -81.6931 250° West 437 503 28,000  Level Atlanta Center
10:19AM 35.3231 -81.8344 250° West 440 506 28,000  Level Atlanta Center
10:20AM 35.2817 -81.9781 251° West 449 517 28,000 -50 Level Atlanta Center
10:21AM 35.2278 -82.1319 247° West 449 517 27,900 -400 Descending Atlanta Center
10:22AM 35.1672 -82.2653 241° Southwest 462 532 27,200 -400 Descending Atlanta Center
10:23AM 35.1000 -82.3961 238° Southwest 462 532 27,100 -100 Descending Atlanta Center
10:24AM 35.0244 -82.5219 234° Southwest 462 532 27,000 450 Descending Atlanta Center
10:25AM 34.9633 -82.6397 238° Southwest 470 541 28,000 -950 Climbing Atlanta Center
10:26AM 34.8958 -82.7625 236° Southwest 465 535 25,100 -1,950 Descending Atlanta Center
10:27AM 34.8261 -82.8900 236° Southwest 459 528 24,100 -500 Descending Atlanta Center
10:28AM 34.7583 -83.0122 236° Southwest 449 517 24,100  Level Atlanta Center
10:29AM 34.6883 -83.1394 236° Southwest 444 511 24,100 -450 Level Atlanta Center
10:30AM 34.6203 -83.2564 235° Southwest 444 511 23,200 -1,450 Descending Atlanta Center
10:31AM 34.5500 -83.3706 233° Southwest 444 511 21,200 -2,000 Descending Atlanta Center
10:32AM 34.4672 -83.4794 227° Southwest 444 511 19,200 -1,850 Descending Atlanta Center
10:33AM 34.3819 -83.5833 225° Southwest 439 505 17,500 -1,850 Descending Atlanta Center
10:34AM 34.3092 -83.6717 225° Southwest 411 473 15,500 -2,050 Descending Atlanta Center
10:35AM 34.2322 -83.7575 223° Southwest 391 450 13,400 -1,650 Descending Atlanta Center
10:36AM 34.1614 -83.8253 218° Southwest 359 413 12,200 -650 Descending Atlanta Center
10:37AM 34.0925 -83.8958 220° Southwest 315 362 12,100 -800 Descending Atlanta Center
10:38AM 34.0322 -83.9486 216° Southwest 297 342 10,600 -1,500 Descending Atlanta Center
10:39AM 33.9528 -83.9761 196° South 285 328 9,100 -850 Descending Atlanta Center
10:40AM 33.8672 -83.9789 182° South 284 327 8,900 -550 Descending Atlanta Center
10:41AM 33.8067 -83.9789 180° South 268 308 8,000 -450 Descending Atlanta Center
10:42AM 33.7461 -84.0114 204° Southwest 247 284 8,000 -700 Level Atlanta Center
10:43AM 33.6942 -84.0564 216° Southwest 234 269 6,600 -1,100 Descending Atlanta Center
10:44AM 33.6606 -84.1186 237° Southwest 220 253 5,800 -1,000 Descending Atlanta Center
10:45AM 33.6500 -84.1667 255° West 200 230 4,900 -1,176 Descending Atlanta TRACON
10:46AM 33.6500 -84.2333 270° West 177 204 3,800 -947 Descending Atlanta TRACON
10:47AM 33.6500 -84.2667 270° West 166 191 3,100 -850 Descending Atlanta TRACON
10:48AM 33.6500 -84.3333 270° West 168 193 2,100 -810 Descending Atlanta TRACON
10:49AM 33.6500 -84.3833 270° West 142 163 1,400 -700 Descending Atlanta TRACON